Time;durP1;ratioP1;P1;durP2;ratioP2;P2;SDS_P1;SDS_P2;PMS_P1;PMS_P2;Temp;Humidity;BMP_temperature;BMP_pressure;BME280_temperature;BME280_humidity;BME280_pressure;Samples;Min_cycle;Max_cycle;Signal;HPM_P1;HPM_P2
2024/03/18 00:00:21;;;;;;;2.97;1.60;;;;;;;11.31;60.86;92840.97;2071608;69;20144;-74
2024/03/18 00:02:49;;;;;;;3.80;1.75;;;;;;;11.39;60.09;92838.66;2071373;69;20162;-74
2024/03/18 00:05:18;;;;;;;4.03;1.98;;;;;;;11.36;60.23;92840.63;2071494;69;20206;-73
2024/03/18 00:07:44;;;;;;;8.52;2.00;;;;;;;11.35;60.84;92853.25;2071469;69;20148;-75
2024/03/18 00:10:11;;;;;;;4.22;1.83;;;;;;;11.29;61.21;92838.78;2071394;69;20226;-75
2024/03/18 00:12:38;;;;;;;3.90;1.85;;;;;;;11.30;61.31;92837.44;2071531;69;20144;-75
2024/03/18 00:15:06;;;;;;;4.30;1.60;;;;;;;11.25;61.82;92841.34;2071836;69;20156;-75
2024/03/18 00:17:34;;;;;;;4.80;2.05;;;;;;;11.25;61.63;92835.00;2068305;69;20171;-76
2024/03/18 00:20:00;;;;;;;3.10;1.50;;;;;;;11.24;61.01;92836.34;2071472;69;20141;-76
2024/03/18 00:22:26;;;;;;;4.13;1.60;;;;;;;11.16;62.20;92839.41;2071714;69;20156;-75
2024/03/18 00:24:52;;;;;;;5.43;1.75;;;;;;;11.20;61.81;92834.75;2071688;69;20221;-76
2024/03/18 00:27:17;;;;;;;5.32;2.00;;;;;;;11.15;62.34;92830.22;2071654;69;20598;-76
2024/03/18 00:33:30;;;;;;;6.00;1.55;;;;;;;11.26;61.34;92828.00;2071770;69;20124;-75
2024/03/18 00:35:57;;;;;;;5.72;2.00;;;;;;;11.19;61.39;92824.81;2071629;69;20144;-75
2024/03/18 00:38:23;;;;;;;5.03;1.70;;;;;;;11.01;61.84;92820.91;2071387;69;20194;-76
2024/03/18 00:40:56;;;;;;;3.78;1.40;;;;;;;11.06;61.70;92816.25;2068043;69;20176;-75
2024/03/18 00:43:25;;;;;;;3.92;1.40;;;;;;;11.05;61.46;92815.53;2068568;69;20603;-75
2024/03/18 00:45:51;;;;;;;3.00;1.50;;;;;;;11.06;62.95;92810.63;2071635;69;20152;-75
2024/03/18 00:48:16;;;;;;;3.92;1.50;;;;;;;11.02;63.39;92801.91;2071723;69;20152;-75
2024/03/18 00:50:42;;;;;;;4.65;1.60;;;;;;;11.05;63.54;92809.88;2071856;69;20168;-76
2024/03/18 00:53:08;;;;;;;4.72;1.45;;;;;;;11.04;63.80;92802.78;2071642;69;20148;-76
2024/03/18 00:55:34;;;;;;;3.22;1.40;;;;;;;11.09;62.36;92807.31;2068368;69;20676;-76
2024/03/18 00:57:59;;;;;;;3.80;1.85;;;;;;;10.62;63.44;92806.53;2071655;69;20140;-77
2024/03/18 01:00:25;;;;;;;4.15;1.40;;;;;;;10.66;64.10;92796.25;2065485;69;20152;-76
2024/03/18 01:02:53;;;;;;;6.13;1.65;;;;;;;10.68;63.68;92792.84;2071320;69;20152;-75
2024/03/18 01:05:19;;;;;;;4.90;1.75;;;;;;;10.53;63.66;92790.47;2071412;69;20216;-75
2024/03/18 01:07:45;;;;;;;3.15;1.58;;;;;;;10.54;63.77;92789.16;2071545;69;20167;-75
2024/03/18 01:10:11;;;;;;;4.15;1.67;;;;;;;10.68;63.70;92776.69;2071740;69;20227;-77
2024/03/18 01:12:40;;;;;;;5.32;1.73;;;;;;;10.81;63.20;92766.91;2071389;69;20168;-76
2024/03/18 01:15:07;;;;;;;6.28;1.58;;;;;;;10.83;64.36;92780.34;2071578;69;20235;-74
2024/03/18 01:17:33;;;;;;;3.45;1.67;;;;;;;10.76;64.05;92770.06;2071622;69;20200;-75
2024/03/18 01:19:59;;;;;;;4.15;1.55;;;;;;;10.77;63.40;92771.56;2071553;69;20650;-76
2024/03/18 01:22:24;;;;;;;3.88;1.60;;;;;;;10.71;64.51;92774.72;2068209;69;20136;-77
2024/03/18 01:24:51;;;;;;;5.10;1.50;;;;;;;10.76;64.43;92782.06;2071710;69;20154;-75
2024/03/18 01:27:18;;;;;;;3.38;1.73;;;;;;;10.76;64.18;92770.78;2071798;69;20598;-75
2024/03/18 01:29:45;;;;;;;3.00;1.40;;;;;;;10.83;63.40;92771.91;2071635;69;20309;-75
2024/03/18 01:32:12;;;;;;;3.67;1.42;;;;;;;10.54;63.42;92738.47;2071741;69;20155;-75
2024/03/18 01:34:38;;;;;;;4.88;1.40;;;;;;;10.74;64.46;92769.94;2071620;69;20148;-74
2024/03/18 01:37:03;;;;;;;5.40;1.73;;;;;;;10.73;63.57;92768.47;2071422;69;20220;-75
2024/03/18 01:39:29;;;;;;;2.75;1.58;;;;;;;10.79;63.29;92763.94;2071706;69;20577;-75
2024/03/18 01:41:55;;;;;;;2.35;1.30;;;;;;;10.82;62.46;92768.38;2071319;69;20152;-75
2024/03/18 01:44:21;;;;;;;3.47;1.40;;;;;;;10.14;64.89;92738.13;2068201;69;20180;-75
2024/03/18 01:46:46;;;;;;;3.03;1.45;;;;;;;10.58;64.01;92747.91;2071504;69;20144;-74
2024/03/18 01:49:12;;;;;;;3.45;1.52;;;;;;;10.60;64.21;92747.28;2071327;69;20164;-75
2024/03/18 01:51:38;;;;;;;5.00;1.55;;;;;;;10.61;64.39;92749.47;2071712;69;20176;-75
2024/03/18 01:54:05;;;;;;;4.07;1.67;;;;;;;10.49;64.59;92748.00;2071845;69;20251;-75
2024/03/18 01:56:31;;;;;;;3.42;1.65;;;;;;;10.51;64.46;92743.25;2071568;69;20141;-75
2024/03/18 02:02:52;;;;;;;2.78;1.50;;;;;;;10.55;64.70;92743.50;2071563;69;20217;-75
2024/03/18 02:05:19;;;;;;;3.03;1.48;;;;;;;10.56;64.24;92738.59;2071482;69;20133;-74
2024/03/18 02:07:45;;;;;;;6.78;1.80;;;;;;;10.48;65.05;92732.47;2071315;69;20151;-74
2024/03/18 02:10:11;;;;;;;3.78;1.45;;;;;;;10.41;65.26;92731.38;2071486;69;20132;-73
2024/03/18 02:12:36;;;;;;;5.85;1.50;;;;;;;10.32;65.79;92737.84;2068076;69;20140;-74
2024/03/18 02:15:03;;;;;;;2.83;1.25;;;;;;;10.33;64.97;92716.78;2068215;69;20673;-74
2024/03/18 02:17:29;;;;;;;3.47;1.63;;;;;;;10.45;64.45;92728.81;2071506;69;20172;-75
2024/03/18 02:19:54;;;;;;;3.95;1.60;;;;;;;10.46;64.30;92726.72;2068292;69;20136;-74
2024/03/18 02:22:20;;;;;;;6.50;2.00;;;;;;;10.33;65.34;92725.22;2071492;69;20193;-75
2024/03/18 02:24:46;;;;;;;4.72;1.80;;;;;;;10.26;65.32;92724.09;2071391;69;20179;-74
2024/03/18 02:27:13;;;;;;;6.35;1.73;;;;;;;10.32;65.25;92709.69;2067980;69;20662;-75
2024/03/18 02:29:39;;;;;;;4.82;2.00;;;;;;;10.37;65.14;92709.34;2071492;69;20156;-75
2024/03/18 02:32:05;;;;;;;5.30;2.20;;;;;;;10.34;65.28;92710.53;2071445;69;20612;-74
2024/03/18 02:34:35;;;;;;;4.63;1.90;;;;;;;10.33;65.60;92709.06;2071562;69;20233;-75
2024/03/18 02:37:01;;;;;;;4.25;1.80;;;;;;;10.43;64.89;92701.25;2071510;69;20294;-75
2024/03/18 02:39:27;;;;;;;3.90;1.75;;;;;;;10.25;66.25;92700.13;2071482;69;20148;-75
2024/03/18 02:41:54;;;;;;;4.95;1.90;;;;;;;10.31;66.00;92696.94;2071489;69;20176;-75
2024/03/18 02:44:20;;;;;;;3.97;1.50;;;;;;;10.30;65.60;92682.16;2071423;69;20188;-76
2024/03/18 02:46:47;;;;;;;4.13;1.58;;;;;;;10.26;66.50;92684.72;2071416;69;20183;-75
2024/03/18 02:49:13;;;;;;;3.00;1.60;;;;;;;10.17;66.22;92680.66;2071414;69;20235;-76
2024/03/18 02:51:39;;;;;;;6.53;1.65;;;;;;;10.26;65.64;92679.09;2068246;69;20156;-75
2024/03/18 02:54:05;;;;;;;4.35;1.88;;;;;;;10.19;65.29;92677.22;2071274;69;20152;-76
2024/03/18 02:56:31;;;;;;;3.35;1.70;;;;;;;10.17;65.69;92675.03;2071126;69;20187;-75
2024/03/18 02:58:57;;;;;;;3.15;1.35;;;;;;;10.19;65.73;92672.34;2071315;69;20223;-74
2024/03/18 03:01:23;;;;;;;5.07;1.70;;;;;;;10.15;66.07;92674.16;2071471;69;20168;-74
2024/03/18 03:03:51;;;;;;;2.65;1.30;;;;;;;10.07;66.67;92665.94;2071163;69;20172;-74
2024/03/18 03:06:18;;;;;;;6.68;1.45;;;;;;;10.13;66.13;92668.41;2071467;69;20183;-75
2024/03/18 03:08:45;;;;;;;3.92;1.70;;;;;;;9.57;68.07;92666.31;2071869;69;20198;-74
2024/03/18 03:11:10;;;;;;;3.35;1.40;;;;;;;9.87;66.42;92656.25;2071871;69;20234;-74
2024/03/18 03:13:36;;;;;;;6.47;1.52;;;;;;;10.00;66.06;92652.13;2071827;69;20148;-75
2024/03/18 03:16:02;;;;;;;4.07;1.48;;;;;;;10.01;65.70;92662.78;2072158;69;20148;-74
2024/03/18 03:18:27;;;;;;;4.50;1.42;;;;;;;10.04;66.66;92658.75;2071803;69;20175;-74
2024/03/18 03:20:54;;;;;;;5.35;1.42;;;;;;;9.98;66.54;92657.63;2071844;69;20168;-75
2024/03/18 03:23:21;;;;;;;5.47;1.50;;;;;;;9.61;67.68;92664.50;2071975;69;20609;-76
2024/03/18 03:25:50;;;;;;;2.17;1.42;;;;;;;9.78;67.04;92663.44;2071797;69;20170;-75
2024/03/18 03:28:17;;;;;;;3.35;1.55;;;;;;;9.80;67.11;92663.56;2071903;69;20148;-75
2024/03/18 03:30:44;;;;;;;4.10;1.40;;;;;;;9.87;66.88;92659.81;2071971;69;20630;-76
2024/03/18 03:33:09;;;;;;;5.05;1.50;;;;;;;9.88;66.44;92654.91;2071576;69;20187;-76
2024/03/18 03:35:35;;;;;;;2.53;1.45;;;;;;;9.95;66.65;92653.22;2071476;69;20305;-75
2024/03/18 03:38:01;;;;;;;2.35;1.30;;;;;;;9.91;67.01;92659.31;2071828;69;20523;-76
2024/03/18 03:40:27;;;;;;;3.28;1.50;;;;;;;9.87;66.03;92647.81;2071457;69;20197;-75
2024/03/18 03:42:53;;;;;;;2.30;1.33;;;;;;;9.53;67.45;92652.75;2071727;69;20194;-76
2024/03/18 03:45:24;;;;;;;3.50;1.45;;;;;;;9.74;67.18;92674.44;2071694;69;20224;-75
2024/03/18 03:47:50;;;;;;;3.78;1.45;;;;;;;9.73;66.94;92672.25;2068328;69;20148;-75
2024/03/18 03:50:18;;;;;;;2.53;1.30;;;;;;;9.74;67.28;92666.00;2071750;69;20219;-75
2024/03/18 03:56:31;;;;;;;4.80;2.22;;;;;;;9.86;66.41;92657.63;2071794;69;20127;-75
2024/03/18 03:58:57;;;;;;;3.90;2.22;;;;;;;9.66;67.53;92652.16;2071638;69;20511;-76
2024/03/18 04:01:22;;;;;;;9.05;2.65;;;;;;;9.64;67.40;92640.06;2068147;69;20504;-75
2024/03/18 04:03:48;;;;;;;3.42;2.53;;;;;;;9.67;67.88;92658.53;2071591;69;20587;-75
2024/03/18 04:06:14;;;;;;;6.40;2.65;;;;;;;9.71;67.41;92660.84;2067956;69;20168;-76
2024/03/18 04:08:39;;;;;;;6.85;2.47;;;;;;;9.65;68.08;92652.78;2071622;69;20176;-74
2024/03/18 04:11:05;;;;;;;5.28;2.30;;;;;;;9.67;68.13;92658.53;2068138;69;20156;-74
2024/03/18 04:13:31;;;;;;;5.32;2.60;;;;;;;9.63;67.82;92659.00;2071888;69;20209;-75
2024/03/18 04:15:57;;;;;;;6.10;2.35;;;;;;;9.60;67.65;92646.16;2068014;69;20515;-75
2024/03/18 04:18:22;;;;;;;3.78;1.90;;;;;;;9.68;67.27;92657.19;2071266;69;20608;-75
2024/03/18 04:20:48;;;;;;;6.63;2.58;;;;;;;9.13;68.96;92656.50;2071680;69;20251;-75
2024/03/18 04:23:14;;;;;;;4.18;2.10;;;;;;;9.30;68.78;92658.25;2071536;69;20132;-74
2024/03/18 04:25:41;;;;;;;3.47;1.92;;;;;;;9.45;68.49;92657.13;2071455;69;20232;-74
2024/03/18 04:28:07;;;;;;;4.97;2.25;;;;;;;9.43;68.66;92654.91;2071400;69;20136;-75
2024/03/18 04:30:33;;;;;;;4.80;2.03;;;;;;;9.47;68.84;92648.81;2071293;69;20137;-75
2024/03/18 04:32:59;;;;;;;3.40;2.05;;;;;;;9.46;68.89;92645.25;2071220;69;20147;-74
2024/03/18 04:35:25;;;;;;;6.43;1.90;;;;;;;9.45;68.21;92645.88;2071822;69;20144;-76
2024/03/18 04:37:57;;;;;;;4.15;1.60;;;;;;;9.45;68.93;92655.03;2071180;69;20148;-75
2024/03/18 04:40:26;;;;;;;7.38;1.80;;;;;;;9.43;68.41;92643.66;2070777;69;20187;-76
2024/03/18 04:42:54;;;;;;;4.07;1.67;;;;;;;9.43;68.60;92635.22;2070941;69;20167;-75
2024/03/18 04:45:21;;;;;;;4.00;1.75;;;;;;;9.36;68.32;92631.31;2070732;69;20167;-75
2024/03/18 04:47:52;;;;;;;3.95;1.70;;;;;;;9.39;69.26;92634.97;2067630;69;20281;-76
2024/03/18 04:50:23;;;;;;;4.15;1.40;;;;;;;9.35;69.02;92624.22;2067863;69;20190;-76
2024/03/18 04:52:50;;;;;;;3.83;1.95;;;;;;;9.34;68.54;92631.16;2071160;69;20148;-76
2024/03/18 04:55:17;;;;;;;4.15;2.28;;;;;;;9.41;68.05;92623.88;2071529;69;20235;-76
2024/03/18 04:57:43;;;;;;;4.07;2.20;;;;;;;9.30;68.75;92628.13;2071519;69;20579;-76
2024/03/18 05:00:11;;;;;;;4.88;2.38;;;;;;;9.15;68.76;92620.84;2071640;69;20224;-76
2024/03/18 05:02:40;;;;;;;6.55;3.97;;;;;;;9.28;68.17;92624.44;2068304;69;20222;-77
2024/03/18 05:05:11;;;;;;;12.63;8.90;;;;;;;9.28;68.24;92621.63;2071449;69;20132;-77
2024/03/18 05:07:36;;;;;;;11.38;6.13;;;;;;;9.20;69.35;92615.47;2071665;69;20240;-77
2024/03/18 05:10:03;;;;;;;7.80;4.57;;;;;;;9.21;68.79;92628.19;2068529;69;20580;-77
2024/03/18 05:12:29;;;;;;;5.15;3.70;;;;;;;9.13;69.76;92622.78;2071571;69;20149;-77
2024/03/18 05:14:55;;;;;;;7.68;4.35;;;;;;;9.23;69.36;92628.31;2071811;69;20473;-76
2024/03/18 05:17:22;;;;;;;7.88;3.80;;;;;;;9.21;68.89;92628.94;2070947;69;20706;-76
2024/03/18 05:19:49;;;;;;;5.55;2.90;;;;;;;9.16;69.44;92622.31;2071657;69;20164;-77
2024/03/18 05:22:15;;;;;;;6.00;3.40;;;;;;;9.07;69.48;92611.91;2071585;69;20144;-76
2024/03/18 05:24:43;;;;;;;6.47;4.07;;;;;;;9.14;69.25;92613.75;2071446;69;20144;-77
2024/03/18 05:27:14;;;;;;;4.43;2.70;;;;;;;9.27;68.35;92603.31;2071725;69;20129;-77
2024/03/18 05:29:39;;;;;;;6.20;3.22;;;;;;;9.18;69.22;92599.25;2071247;69;20152;-76
2024/03/18 05:32:07;;;;;;;7.43;2.92;;;;;;;9.21;69.06;92603.66;2071541;69;20144;-76
2024/03/18 05:34:32;;;;;;;4.90;2.60;;;;;;;9.16;69.07;92602.66;2071782;69;20160;-76
2024/03/18 05:36:58;;;;;;;5.85;2.58;;;;;;;9.09;69.88;92600.78;2071789;69;20193;-76
2024/03/18 05:39:24;;;;;;;4.35;2.00;;;;;;;9.06;69.88;92601.25;2071770;69;20550;-76
2024/03/18 05:41:49;;;;;;;4.85;2.08;;;;;;;9.14;68.61;92610.22;2071052;69;20195;-76
2024/03/18 05:44:15;;;;;;;4.38;2.45;;;;;;;9.20;68.56;92610.59;2071435;69;20530;-76
2024/03/18 05:46:40;;;;;;;4.05;1.50;;;;;;;9.35;68.17;92613.00;2071168;69;20136;-76
2024/03/18 05:49:06;;;;;;;8.43;3.72;;;;;;;9.17;69.15;92609.00;2071379;69;20718;-76
2024/03/18 05:51:32;;;;;;;9.00;3.45;;;;;;;8.78;70.45;92600.16;2071271;69;20259;-76
2024/03/18 05:57:44;;;;;;;12.18;4.00;;;;;;;9.21;70.32;92600.09;2071459;69;20656;-75
2024/03/18 06:00:12;;;;;;;15.20;5.18;;;;;;;9.22;69.36;92591.06;2071438;69;20160;-75
2024/03/18 06:02:38;;;;;;;13.23;5.07;;;;;;;9.30;68.92;92596.47;2071559;69;20140;-75
2024/03/18 06:05:03;;;;;;;10.93;4.20;;;;;;;9.32;68.25;92588.91;2068277;69;20272;-76
2024/03/18 06:07:29;;;;;;;8.52;4.50;;;;;;;9.38;69.05;92592.09;2071677;69;20140;-75
2024/03/18 06:09:55;;;;;;;9.10;3.85;;;;;;;9.44;69.09;92591.75;2071308;69;20174;-75
2024/03/18 06:12:24;;;;;;;13.40;4.10;;;;;;;9.50;69.25;92592.13;2071551;69;20175;-76
2024/03/18 06:14:49;;;;;;;10.25;4.03;;;;;;;9.55;69.50;92593.13;2071565;69;20172;-75
2024/03/18 06:17:15;;;;;;;9.60;4.78;;;;;;;9.59;69.40;92585.69;2071564;69;20175;-76
2024/03/18 06:19:41;;;;;;;9.82;6.45;;;;;;;9.62;69.57;92587.28;2071542;69;20223;-75
2024/03/18 06:22:20;;;;;;;13.73;7.50;;;;;;;9.69;68.39;92591.19;2068306;69;20168;-75
2024/03/18 06:27:30;;;;;;;7.20;4.40;;;;;;;9.82;67.85;92587.78;2071570;69;20239;-75
2024/03/18 06:33:44;;;;;;;5.95;3.15;;;;;;;9.68;67.92;92573.59;2071454;69;20123;-76
2024/03/18 06:36:09;;;;;;;7.50;2.90;;;;;;;9.78;67.09;92581.19;2071430;69;20128;-75
2024/03/18 06:38:36;;;;;;;13.15;5.88;;;;;;;9.69;68.67;92588.38;2071222;69;20150;-76
2024/03/18 06:41:02;;;;;;;18.75;7.97;;;;;;;9.57;68.96;92576.38;2071090;69;20147;-77
2024/03/18 06:43:28;;;;;;;13.63;3.60;;;;;;;9.57;68.97;92574.31;2071514;69;20152;-76
2024/03/18 06:45:54;;;;;;;5.88;2.60;;;;;;;9.58;69.11;92555.38;2071733;69;20614;-76
2024/03/18 06:48:19;;;;;;;8.25;2.58;;;;;;;9.93;67.90;92573.00;2071254;69;20148;-75
2024/03/18 06:50:45;;;;;;;5.82;2.70;;;;;;;10.08;66.84;92566.19;2071630;69;20231;-76
2024/03/18 06:53:11;;;;;;;11.23;2.83;;;;;;;10.24;67.18;92566.44;2071610;69;20588;-76
2024/03/18 06:55:40;;;;;;;7.85;4.60;;;;;;;10.27;66.31;92562.41;2071551;69;20603;-76
2024/03/18 06:58:06;;;;;;;9.02;4.68;;;;;;;10.43;65.51;92568.97;2071449;69;20634;-76
2024/03/18 07:00:32;;;;;;;8.50;4.22;;;;;;;10.51;66.16;92565.91;2071494;69;20172;-77
2024/03/18 07:02:58;;;;;;;12.57;4.15;;;;;;;10.49;66.43;92565.06;2071210;69;20151;-76
2024/03/18 07:05:24;;;;;;;10.32;3.80;;;;;;;10.70;64.69;92562.09;2071429;69;20192;-75
2024/03/18 07:07:51;;;;;;;10.82;4.40;;;;;;;10.60;65.57;92538.97;2070889;69;20152;-77
2024/03/18 07:10:17;;;;;;;8.27;4.30;;;;;;;10.67;65.44;92549.22;2067683;69;20151;-77
2024/03/18 07:12:44;;;;;;;7.40;3.78;;;;;;;10.55;65.60;92551.34;2071052;69;20227;-77
2024/03/18 07:15:11;;;;;;;3.88;2.35;;;;;;;10.56;65.48;92544.38;2070721;69;20152;-77
2024/03/18 07:17:38;;;;;;;9.30;3.00;;;;;;;10.83;65.04;92546.63;2070852;69;20542;-76
2024/03/18 07:20:06;;;;;;;5.97;2.92;;;;;;;10.96;65.17;92545.25;2067664;69;20168;-76
2024/03/18 07:22:35;;;;;;;4.68;2.72;;;;;;;10.64;65.88;92544.84;2071188;69;20152;-77
2024/03/18 07:25:03;;;;;;;9.68;2.63;;;;;;;10.99;64.44;92547.53;2062462;69;20661;-76
2024/03/18 07:27:29;;;;;;;6.72;1.90;;;;;;;10.27;65.57;92556.03;2066696;69;20227;-76
2024/03/18 07:29:58;;;;;;;4.60;1.50;;;;;;;10.64;64.78;92553.28;2070470;69;20236;-77
2024/03/18 07:32:27;;;;;;;3.33;1.80;;;;;;;11.04;63.23;92546.44;2071040;69;20566;-76
2024/03/18 07:38:40;;;;;;;5.82;2.42;;;;;;;11.40;62.78;92547.00;2070966;69;20119;-77
2024/03/18 07:45:11;;;;;;;4.30;2.10;;;;;;;11.26;63.26;92534.94;2070077;69;20171;-78
2024/03/18 07:47:37;;;;;;;5.70;2.40;;;;;;;11.07;64.08;92527.56;2071338;69;20133;-76
2024/03/18 07:50:04;;;;;;;3.65;2.00;;;;;;;11.27;63.93;92528.69;2071261;69;20164;-76
2024/03/18 07:52:30;;;;;;;4.03;2.17;;;;;;;11.56;63.20;92521.78;2071739;69;20698;-78
2024/03/18 07:54:56;;;;;;;5.15;2.30;;;;;;;11.88;63.27;92515.09;2072098;69;20148;-77
2024/03/18 07:57:21;;;;;;;4.57;2.05;;;;;;;11.85;63.33;92507.13;2071943;69;20201;-77
2024/03/18 07:59:47;;;;;;;3.45;1.90;;;;;;;11.91;63.01;92510.28;2072026;69;20202;-78
2024/03/18 08:06:07;;;;;;;3.83;1.48;;;;;;;11.91;62.24;92499.00;2071550;69;20131;-78
2024/03/18 08:08:33;;;;;;;5.30;2.45;;;;;;;11.89;62.41;92504.53;2071816;69;20151;-77
2024/03/18 08:10:58;;;;;;;4.18;2.60;;;;;;;12.37;62.09;92497.88;2072036;69;20152;-78
2024/03/18 08:13:24;;;;;;;7.32;3.05;;;;;;;12.19;62.09;92494.13;2071956;69;20146;-77
2024/03/18 08:15:50;;;;;;;3.95;2.55;;;;;;;12.13;62.56;92494.50;2071913;69;20156;-77
2024/03/18 08:18:15;;;;;;;2.92;2.40;;;;;;;12.28;61.86;92498.81;2071993;69;20607;-77
2024/03/18 08:20:41;;;;;;;3.63;2.10;;;;;;;12.68;61.35;92491.63;2071927;69;20148;-76
2024/03/18 08:23:08;;;;;;;5.80;2.00;;;;;;;13.05;60.31;92495.53;2071586;69;20907;-76
2024/03/18 08:25:34;;;;;;;5.55;2.13;;;;;;;13.28;59.86;92483.94;2071692;69;20175;-76
2024/03/18 08:27:59;;;;;;;4.28;2.28;;;;;;;13.33;60.27;92493.34;2071810;69;20140;-76
2024/03/18 08:30:25;;;;;;;3.88;2.20;;;;;;;13.49;59.73;92479.97;2071757;69;20160;-77
2024/03/18 08:32:51;;;;;;;5.88;2.42;;;;;;;13.34;59.69;92487.06;2068358;69;20163;-77
2024/03/18 08:35:16;;;;;;;3.60;2.10;;;;;;;13.74;59.03;92478.97;2071274;69;20183;-77
2024/03/18 08:37:42;;;;;;;3.72;1.50;;;;;;;12.83;60.53;92478.97;2071774;69;20143;-83
2024/03/18 08:40:09;;;;;;;2.60;1.33;;;;;;;13.28;58.70;92471.91;2071689;69;20150;-78
2024/03/18 08:42:35;;;;;;;3.45;1.40;;;;;;;13.68;58.19;92473.06;2071702;69;20222;-78
2024/03/18 08:45:01;;;;;;;3.10;1.50;;;;;;;13.65;56.96;92469.44;2071592;69;20609;-77
2024/03/18 08:47:27;;;;;;;2.95;1.88;;;;;;;12.97;58.51;92471.19;2068285;69;20137;-77
2024/03/18 08:49:53;;;;;;;2.10;1.48;;;;;;;13.36;58.03;92458.88;2071775;69;20644;-77
2024/03/18 08:52:18;;;;;;;2.90;1.70;;;;;;;13.93;56.39;92469.97;2071642;69;20148;-77
2024/03/18 08:54:44;;;;;;;3.08;1.40;;;;;;;13.99;56.41;92464.56;2071636;69;20232;-77
2024/03/18 08:57:09;;;;;;;2.33;1.40;;;;;;;13.97;55.97;92455.25;2071779;69;20145;-77
2024/03/18 08:59:39;;;;;;;2.70;1.50;;;;;;;13.64;55.97;92455.91;2071764;69;20163;-78
2024/03/18 09:02:05;;;;;;;3.90;1.90;;;;;;;13.82;56.02;92462.38;2071326;69;20613;-76
2024/03/18 09:04:31;;;;;;;4.43;1.80;;;;;;;13.64;56.85;92455.91;2071650;69;20168;-78
2024/03/18 09:06:56;;;;;;;3.83;1.52;;;;;;;13.11;58.21;92451.34;2065025;69;20452;-76
2024/03/18 09:09:22;;;;;;;4.25;1.83;;;;;;;13.42;57.90;92453.53;2071031;69;20144;-76
2024/03/18 09:11:49;;;;;;;3.13;1.63;;;;;;;13.04;57.62;92446.03;2070955;69;20678;-76
2024/03/18 09:14:14;;;;;;;3.97;1.42;;;;;;;13.44;57.47;92447.22;2071235;69;20164;-76
2024/03/18 09:16:40;;;;;;;1.95;1.40;;;;;;;14.03;56.06;92435.72;2067691;69;20153;-76
2024/03/18 09:19:06;;;;;;;5.35;1.55;;;;;;;13.98;55.84;92440.47;2071141;69;20136;-77
2024/03/18 09:21:33;;;;;;;2.70;1.58;;;;;;;14.08;55.58;92436.63;2071443;69;20592;-76
2024/03/18 09:23:58;;;;;;;1.75;1.13;;;;;;;14.29;55.77;92427.63;2071767;69;20155;-76
2024/03/18 09:26:24;;;;;;;2.17;1.20;;;;;;;14.37;55.86;92424.41;2071740;69;20172;-76
2024/03/18 09:28:50;;;;;;;4.38;1.50;;;;;;;14.65;55.05;92422.78;2068353;69;20152;-77
2024/03/18 09:31:16;;;;;;;5.05;1.33;;;;;;;14.70;55.17;92409.53;2071408;69;20179;-77
2024/03/18 09:33:43;;;;;;;1.58;1.27;;;;;;;14.90;55.41;92406.81;2071620;69;20610;-77
2024/03/18 09:36:08;;;;;;;3.20;1.20;;;;;;;14.55;55.61;92413.16;2071868;69;20148;-77
2024/03/18 09:38:34;;;;;;;2.28;1.40;;;;;;;14.55;55.23;92416.00;2071787;69;20166;-77
2024/03/18 09:41:04;;;;;;;4.95;1.58;;;;;;;14.65;54.76;92405.06;2071699;69;20592;-78
2024/03/18 09:43:34;;;;;;;1.50;1.20;;;;;;;14.69;54.49;92402.41;2071669;69;20192;-77
2024/03/18 09:46:04;;;;;;;5.20;1.30;;;;;;;14.85;53.89;92403.09;2071716;69;20160;-77
2024/03/18 09:48:33;;;;;;;3.28;1.30;;;;;;;14.84;53.58;92404.44;2071683;69;20145;-77
2024/03/18 09:50:59;;;;;;;5.43;2.00;;;;;;;13.57;55.90;92406.09;2071683;69;20192;-77
2024/03/18 09:53:29;;;;;;;3.50;1.30;;;;;;;13.82;55.72;92405.06;2071746;69;20155;-77
2024/03/18 09:55:55;;;;;;;1.80;1.15;;;;;;;13.78;55.50;92399.97;2071804;69;20532;-78
2024/03/18 09:58:21;;;;;;;4.43;1.38;;;;;;;13.98;55.20;92405.78;2071788;69;20144;-77
2024/03/18 10:00:47;;;;;;;5.65;1.30;;;;;;;14.31;54.60;92395.84;2071780;69;20159;-77
2024/03/18 10:03:19;;;;;;;4.05;1.30;;;;;;;14.06;54.82;92408.94;2071740;69;20133;-76
2024/03/18 10:05:46;;;;;;;2.92;1.30;;;;;;;13.75;55.53;92404.09;2071842;69;20147;-77
2024/03/18 10:08:21;;;;;;;5.05;1.52;;;;;;;14.33;54.64;92407.25;2071593;69;20247;-77
2024/03/18 10:10:52;;;;;;;3.22;1.10;;;;;;;13.95;54.73;92399.31;2071920;69;20145;-77
2024/03/18 10:13:24;;;;;;;3.30;1.10;;;;;;;14.06;54.67;92406.13;2071882;69;20202;-77
2024/03/18 10:15:53;;;;;;;1.48;1.10;;;;;;;13.91;54.94;92412.53;2071999;69;20168;-77
2024/03/18 10:18:19;;;;;;;2.45;1.23;;;;;;;13.04;57.35;92412.13;2071630;69;20128;-77
2024/03/18 10:24:31;;;;;;;2.70;1.25;;;;;;;12.79;58.44;92404.59;2071767;69;20498;-77
2024/03/18 10:27:00;;;;;;;1.55;1.20;;;;;;;13.43;56.84;92411.84;2071792;69;20133;-76
2024/03/18 10:29:26;;;;;;;6.93;1.58;;;;;;;13.57;56.76;92414.59;2071776;69;20144;-77
2024/03/18 10:31:52;;;;;;;4.25;1.92;;;;;;;13.51;57.58;92406.53;2071443;69;20609;-76
2024/03/18 10:34:23;;;;;;;5.47;2.40;;;;;;;13.73;57.71;92413.19;2071746;69;20152;-76
2024/03/18 10:36:59;;;;;;;6.38;2.60;;;;;;;13.71;57.68;92412.38;2071712;69;20151;-77
2024/03/18 10:39:39;;;;;;;4.88;2.17;;;;;;;13.88;58.28;92423.06;2068436;69;20236;-77
2024/03/18 10:42:06;;;;;;;4.10;1.92;;;;;;;13.67;58.35;92415.75;2068306;69;20171;-77
2024/03/18 10:44:38;;;;;;;4.05;2.10;;;;;;;13.59;58.76;92415.41;2071526;69;20242;-76
2024/03/18 10:47:05;;;;;;;4.97;1.70;;;;;;;13.89;57.50;92410.38;2071224;69;20189;-77
2024/03/18 10:49:31;;;;;;;7.13;4.78;;;;;;;13.78;58.02;92410.56;2071495;69;20598;-77
2024/03/18 10:51:58;;;;;;;7.78;3.97;;;;;;;13.88;58.74;92413.81;2071371;69;20180;-76
2024/03/18 10:54:26;;;;;;;7.60;3.05;;;;;;;13.66;59.19;92410.75;2071360;69;20164;-76
2024/03/18 10:56:52;;;;;;;5.38;2.95;;;;;;;13.87;59.15;92404.59;2071586;69;20152;-77
2024/03/18 10:59:19;;;;;;;6.53;3.60;;;;;;;13.30;60.28;92418.31;2071384;69;20140;-77
2024/03/18 11:01:45;;;;;;;3.85;2.53;;;;;;;13.31;60.51;92409.19;2070945;69;20168;-77
2024/03/18 11:04:29;;;;;;;4.75;2.28;;;;;;;13.20;61.33;92416.44;2071431;69;20155;-77
2024/03/18 11:06:55;;;;;;;3.90;2.60;;;;;;;13.32;60.91;92418.38;2071369;69;20213;-77
2024/03/18 11:09:23;;;;;;;7.15;2.70;;;;;;;13.36;60.41;92418.56;2068008;69;20148;-77
2024/03/18 11:11:49;;;;;;;5.55;2.10;;;;;;;13.01;62.12;92421.84;2071449;69;20235;-76
2024/03/18 11:14:25;;;;;;;4.35;2.13;;;;;;;12.80;62.15;92409.59;2068015;69;20159;-77
2024/03/18 11:20:50;;;;;;;4.47;2.15;;;;;;;13.75;62.97;92423.16;2071372;69;20127;-76
2024/03/18 11:23:21;;;;;;;3.47;2.03;;;;;;;13.79;64.37;92417.66;2071443;69;20136;-76
2024/03/18 11:29:38;;;;;;;4.03;2.50;;;;;;;13.56;63.92;92416.69;2072031;69;20115;-76
2024/03/18 11:32:04;;;;;;;4.80;2.38;;;;;;;13.42;62.74;92418.84;2071839;69;20160;-76
2024/03/18 11:34:34;;;;;;;3.80;2.92;;;;;;;13.34;62.02;92413.56;2072008;69;20208;-76
2024/03/18 11:37:00;;;;;;;6.38;1.92;;;;;;;13.46;62.45;92413.38;2072137;69;20136;-77
2024/03/18 11:39:27;;;;;;;3.80;2.30;;;;;;;13.41;63.79;92417.41;2071904;69;20585;-77
2024/03/18 11:42:03;;;;;;;3.72;2.40;;;;;;;13.68;62.96;92408.00;2071627;69;20152;-77
2024/03/18 11:44:33;;;;;;;5.45;1.98;;;;;;;13.88;62.84;92406.09;2068351;69;20619;-77
2024/03/18 11:47:04;;;;;;;2.17;1.55;;;;;;;13.98;63.93;92400.13;2068446;69;20692;-77
2024/03/18 11:49:30;;;;;;;6.18;1.80;;;;;;;14.02;65.25;92389.00;2071939;69;20154;-77
2024/03/18 11:51:57;;;;;;;3.00;1.80;;;;;;;14.13;65.02;92410.69;2071979;69;20140;-76
2024/03/18 11:54:23;;;;;;;3.72;2.08;;;;;;;14.14;64.49;92400.09;2071960;69;20159;-77
2024/03/18 11:56:49;;;;;;;3.53;1.90;;;;;;;14.14;64.97;92405.75;2071811;69;20152;-77
2024/03/18 11:59:15;;;;;;;4.53;2.00;;;;;;;14.17;64.83;92402.38;2072052;69;20175;-77
2024/03/18 12:01:41;;;;;;;3.97;1.95;;;;;;;14.12;64.27;92391.53;2071698;69;20152;-75
2024/03/18 12:04:07;;;;;;;4.05;1.90;;;;;;;14.22;64.23;92397.63;2071866;69;20184;-76
2024/03/18 12:06:38;;;;;;;2.40;1.73;;;;;;;14.20;64.39;92395.44;2071914;69;20492;-75
2024/03/18 12:09:07;;;;;;;2.80;1.60;;;;;;;13.85;64.04;92398.16;2071675;69;20186;-76
2024/03/18 12:11:34;;;;;;;6.10;4.80;;;;;;;13.90;63.45;92394.84;2071617;69;20146;-75
2024/03/18 12:14:00;;;;;;;5.43;2.75;;;;;;;14.10;63.65;92392.16;2071737;69;20160;-76
2024/03/18 12:16:26;;;;;;;3.80;1.60;;;;;;;13.55;64.30;92395.41;2071831;69;20148;-76
2024/03/18 12:18:52;;;;;;;2.95;1.90;;;;;;;12.93;65.52;92394.69;2071737;69;20614;-77